createdAt,value
2022-10-17T00:01:21.903Z,4.13
2022-10-17T00:03:49.458Z,4.40
2022-10-17T00:06:17.043Z,4.63
2022-10-17T00:08:45.525Z,4.23
2022-10-17T00:11:22.621Z,4.53
2022-10-17T00:13:53.969Z,4.30
2022-10-17T00:16:29.237Z,4.20
2022-10-17T00:18:57.362Z,4.17
2022-10-17T00:21:26.153Z,4.20
2022-10-17T00:23:54.295Z,4.33
2022-10-17T00:26:22.615Z,4.80
2022-10-17T00:28:53.317Z,4.50
2022-10-17T00:31:23.351Z,4.37
2022-10-17T00:33:51.735Z,4.90
2022-10-17T00:36:25.939Z,4.97
2022-10-17T00:38:57.785Z,4.90
2022-10-17T00:41:29.764Z,4.43
2022-10-17T00:44:06.373Z,5.30
2022-10-17T00:46:37.808Z,4.90
2022-10-17T00:49:11.892Z,4.53
2022-10-17T00:51:51.632Z,4.93
2022-10-17T00:54:27.053Z,5.07
2022-10-17T00:56:55.385Z,4.97
2022-10-17T00:59:25.018Z,5.10
2022-10-17T01:02:10.762Z,4.90
2022-10-17T01:04:42.727Z,5.20
2022-10-17T01:07:10.929Z,4.87
2022-10-17T01:09:40.410Z,5.07
2022-10-17T01:12:35.107Z,5.20
2022-10-17T01:15:29.636Z,5.17
2022-10-17T01:17:59.869Z,4.90
2022-10-17T01:20:38.891Z,5.00
2022-10-17T01:23:11.874Z,5.00
2022-10-17T01:25:57.495Z,5.63
2022-10-17T01:29:04.700Z,5.27
2022-10-17T01:31:53.288Z,5.30
2022-10-17T01:34:33.372Z,4.87
2022-10-17T01:37:20.008Z,5.00
2022-10-17T01:39:54.986Z,5.00
2022-10-17T01:42:48.063Z,4.77
2022-10-17T01:45:23.437Z,4.80
2022-10-17T01:47:54.975Z,4.90
2022-10-17T01:50:31.649Z,4.97
2022-10-17T01:53:09.300Z,5.27
2022-10-17T01:55:41.565Z,5.03
2022-10-17T01:58:16.902Z,5.30
2022-10-17T02:00:47.155Z,5.20
2022-10-17T02:03:21.298Z,5.57
2022-10-17T02:05:50.097Z,5.20
2022-10-17T02:08:40.807Z,5.40
2022-10-17T02:11:20.712Z,5.40
2022-10-17T02:17:01.260Z,5.40
2022-10-17T02:19:43.401Z,5.73
2022-10-17T02:22:44.642Z,5.30
2022-10-17T02:25:53.532Z,5.47
2022-10-17T02:28:45.670Z,5.40
2022-10-17T02:31:20.263Z,5.30
2022-10-17T02:34:13.568Z,5.27
2022-10-17T02:36:49.317Z,5.37
2022-10-17T02:39:18.141Z,5.67
2022-10-17T02:41:47.236Z,5.30
2022-10-17T02:44:16.209Z,5.30
2022-10-17T02:46:56.158Z,5.30
2022-10-17T02:49:36.708Z,5.33
2022-10-17T02:52:40.040Z,5.63
2022-10-17T02:55:17.516Z,5.47
2022-10-17T02:57:59.200Z,5.00
2022-10-17T03:00:29.047Z,5.53
2022-10-17T03:02:56.577Z,5.73
2022-10-17T03:05:29.903Z,5.10
2022-10-17T03:07:57.696Z,5.07
2022-10-17T03:10:25.225Z,5.20
2022-10-17T03:12:52.586Z,5.00
2022-10-17T03:15:19.949Z,4.90
2022-10-17T03:17:47.231Z,5.50
2022-10-17T03:20:14.484Z,4.80
2022-10-17T03:22:41.797Z,5.50
2022-10-17T03:25:09.188Z,5.40
2022-10-17T03:27:36.373Z,4.90
2022-10-17T03:30:04.399Z,5.50
2022-10-17T03:32:34.694Z,5.30
2022-10-17T03:35:02.422Z,5.10
2022-10-17T03:37:29.969Z,5.03
2022-10-17T03:39:57.579Z,5.03
2022-10-17T03:42:24.961Z,5.57
2022-10-17T03:44:52.044Z,5.03
2022-10-17T03:47:19.387Z,5.60
2022-10-17T03:49:46.734Z,5.57
2022-10-17T03:52:15.200Z,5.50
2022-10-17T03:54:42.776Z,4.93
2022-10-17T03:57:10.177Z,4.90
2022-10-17T03:59:37.549Z,5.03
2022-10-17T04:02:04.999Z,5.27
2022-10-17T04:04:32.565Z,5.37
2022-10-17T04:07:00.026Z,5.23
2022-10-17T04:09:27.444Z,5.20
2022-10-17T04:11:55.048Z,5.60
2022-10-17T04:14:22.479Z,5.00
2022-10-17T04:16:50.249Z,5.07
2022-10-17T04:19:36.466Z,5.33
2022-10-17T04:22:42.643Z,5.60
2022-10-17T04:25:10.246Z,5.40
2022-10-17T04:27:37.900Z,5.57
2022-10-17T04:30:05.765Z,5.93
2022-10-17T04:32:37.161Z,5.20
2022-10-17T04:35:04.957Z,5.33
2022-10-17T04:37:32.527Z,5.20
2022-10-17T04:40:21.193Z,5.33
2022-10-17T04:42:48.430Z,5.33
2022-10-17T04:45:15.940Z,5.43
2022-10-17T04:47:43.650Z,5.70
2022-10-17T04:50:10.764Z,5.07
2022-10-17T04:52:37.960Z,5.40
2022-10-17T04:55:08.557Z,5.23
2022-10-17T04:57:36.674Z,5.67
2022-10-17T05:00:05.414Z,5.47
2022-10-17T05:02:32.819Z,5.27
2022-10-17T05:05:00.242Z,5.47
2022-10-17T05:07:28.003Z,5.17
2022-10-17T05:09:55.382Z,5.30
2022-10-17T05:12:22.714Z,5.67
2022-10-17T05:14:49.973Z,5.33
2022-10-17T05:17:17.287Z,5.30
2022-10-17T05:19:44.790Z,5.07
2022-10-17T05:22:12.129Z,5.07
2022-10-17T05:24:39.616Z,5.37
2022-10-17T05:27:07.800Z,5.50
2022-10-17T05:29:35.936Z,5.03
2022-10-17T05:32:03.564Z,5.57
2022-10-17T05:34:31.171Z,6.03
2022-10-17T05:36:58.566Z,5.40
2022-10-17T05:39:25.897Z,5.97
2022-10-17T05:41:53.270Z,6.23
2022-10-17T05:44:20.646Z,5.37
2022-10-17T05:46:50.206Z,5.00
2022-10-17T05:49:32.185Z,5.87
2022-10-17T05:52:06.432Z,5.47
2022-10-17T05:54:34.691Z,5.10
2022-10-17T05:57:02.139Z,5.47
2022-10-17T05:59:30.271Z,5.43
2022-10-17T06:01:58.422Z,5.37
2022-10-17T06:04:28.129Z,5.10
2022-10-17T06:06:56.722Z,5.30
2022-10-17T06:09:25.240Z,5.50
2022-10-17T06:11:54.161Z,5.60
2022-10-17T06:14:22.124Z,5.10
2022-10-17T06:16:49.812Z,5.73
2022-10-17T06:19:17.581Z,6.10
2022-10-17T06:21:45.343Z,5.80
2022-10-17T06:24:13.704Z,5.80
2022-10-17T06:26:42.057Z,5.77
2022-10-17T06:29:10.286Z,5.50
2022-10-17T06:31:56.639Z,5.93
2022-10-17T06:34:24.102Z,6.07
2022-10-17T06:36:51.423Z,5.97
2022-10-17T06:39:19.527Z,5.53
2022-10-17T06:41:46.967Z,5.87
2022-10-17T06:44:14.563Z,5.40
2022-10-17T06:46:42.293Z,5.83
2022-10-17T06:49:11.292Z,5.77
2022-10-17T06:51:38.933Z,5.73
2022-10-17T06:54:06.205Z,5.87
2022-10-17T06:56:33.657Z,5.90
2022-10-17T06:59:01.052Z,5.17
2022-10-17T07:01:30.098Z,5.37
2022-10-17T07:03:57.504Z,5.57
2022-10-17T07:06:25.032Z,5.57
2022-10-17T07:08:58.519Z,5.67
2022-10-17T07:11:26.173Z,5.13
2022-10-17T07:13:53.535Z,6.23
2022-10-17T07:16:21.505Z,5.13
2022-10-17T07:18:53.057Z,5.17
2022-10-17T07:21:20.936Z,5.10
2022-10-17T07:23:48.123Z,5.13
2022-10-17T07:26:17.656Z,5.47
2022-10-17T07:28:47.972Z,4.73
2022-10-17T07:31:21.030Z,4.97
2022-10-17T07:33:49.244Z,5.70
2022-10-17T07:36:17.960Z,5.50
2022-10-17T07:38:45.662Z,5.40
2022-10-17T07:41:17.851Z,5.83
2022-10-17T07:43:48.713Z,5.40
2022-10-17T07:46:16.393Z,5.97
2022-10-17T07:48:44.231Z,5.43
2022-10-17T07:51:11.864Z,6.00
2022-10-17T07:53:42.786Z,5.43
2022-10-17T07:56:14.191Z,4.90
2022-10-17T07:58:41.665Z,4.87
2022-10-17T08:01:15.727Z,4.97
2022-10-17T08:03:45.993Z,4.83
2022-10-17T08:06:14.221Z,5.20
2022-10-17T08:08:42.554Z,5.37
2022-10-17T08:11:14.107Z,4.63
2022-10-17T08:13:42.841Z,4.77
2022-10-17T08:16:14.156Z,4.77
2022-10-17T08:18:44.346Z,4.77
2022-10-17T08:21:13.668Z,4.63
2022-10-17T08:23:41.509Z,4.80
2022-10-17T08:26:11.067Z,4.70
2022-10-17T08:28:41.169Z,4.63
2022-10-17T08:31:16.079Z,5.03
2022-10-17T08:33:43.597Z,4.33
2022-10-17T08:36:15.538Z,4.60
2022-10-17T08:38:43.918Z,4.37
2022-10-17T08:41:26.850Z,4.33
2022-10-17T08:44:30.687Z,4.10
2022-10-17T08:47:04.711Z,4.00
2022-10-17T08:49:59.158Z,4.23
2022-10-17T08:52:53.790Z,3.93
2022-10-17T08:55:45.782Z,3.73
2022-10-17T08:58:34.120Z,4.23
2022-10-17T09:01:05.354Z,3.60
2022-10-17T09:04:02.046Z,3.93
2022-10-17T09:06:39.322Z,3.77
2022-10-17T09:10:00.452Z,3.53
2022-10-17T09:13:06.904Z,3.60
2022-10-17T09:16:14.785Z,4.00
2022-10-17T09:18:51.464Z,3.67
2022-10-17T09:22:02.967Z,4.00
2022-10-17T09:24:45.384Z,3.50
2022-10-17T09:27:34.312Z,3.67
2022-10-17T09:30:47.695Z,4.07
2022-10-17T09:33:35.490Z,3.87
2022-10-17T09:36:35.588Z,4.07
2022-10-17T09:39:17.022Z,3.10
2022-10-17T09:41:57.380Z,3.77
2022-10-17T09:44:35.849Z,3.63
2022-10-17T09:47:18.599Z,3.47
2022-10-17T09:49:48.420Z,3.50
2022-10-17T09:52:28.928Z,3.70
2022-10-17T09:55:32.089Z,3.87
2022-10-17T09:58:05.680Z,3.30
2022-10-17T10:00:38.874Z,3.53
2022-10-17T10:03:16.152Z,3.47
2022-10-17T10:06:14.069Z,3.50
2022-10-17T10:08:58.941Z,3.80
2022-10-17T10:11:50.350Z,3.53
2022-10-17T10:14:35.743Z,4.00
2022-10-17T10:17:07.283Z,4.20
2022-10-17T10:19:38.043Z,3.90
2022-10-17T10:22:16.549Z,4.20
2022-10-17T10:24:44.055Z,4.03
2022-10-17T10:27:18.220Z,4.23
2022-10-17T10:29:53.633Z,3.97
2022-10-17T10:32:28.229Z,4.23
2022-10-17T10:35:08.417Z,4.50
2022-10-17T10:37:44.876Z,4.07
2022-10-17T10:40:44.830Z,4.87
2022-10-17T10:43:39.738Z,4.40
2022-10-17T10:46:28.461Z,4.37
2022-10-17T10:49:01.333Z,4.67
2022-10-17T10:51:42.184Z,4.10
2022-10-17T10:54:20.462Z,4.27
2022-10-17T10:56:55.397Z,4.83
2022-10-17T11:00:09.447Z,4.03
2022-10-17T11:03:20.188Z,4.40
2022-10-17T11:06:06.649Z,5.10
2022-10-17T11:08:52.906Z,5.73
2022-10-17T11:11:39.415Z,5.07
2022-10-17T11:14:32.843Z,4.70
2022-10-17T11:17:29.228Z,5.07
2022-10-17T11:20:12.541Z,5.30
2022-10-17T11:22:57.938Z,5.33
2022-10-17T11:25:41.280Z,5.30
2022-10-17T11:28:21.859Z,5.20
2022-10-17T11:31:13.168Z,4.77
2022-10-17T11:34:21.558Z,5.17
2022-10-17T11:36:58.553Z,4.80
2022-10-17T11:39:43.366Z,5.20
2022-10-17T11:42:19.310Z,4.90
2022-10-17T11:44:49.528Z,5.07
2022-10-17T11:47:52.170Z,4.93
2022-10-17T11:53:24.922Z,4.97
2022-10-17T11:55:56.735Z,4.60
2022-10-17T11:58:37.466Z,4.90
2022-10-17T12:01:33.151Z,5.10
2022-10-17T12:04:17.281Z,5.40
2022-10-17T12:07:17.964Z,5.10
2022-10-17T12:10:22.388Z,5.43
2022-10-17T12:12:49.853Z,4.73
2022-10-17T12:15:19.930Z,4.90
2022-10-17T12:17:57.040Z,4.97
2022-10-17T12:20:24.084Z,4.90
2022-10-17T12:23:12.556Z,4.73
2022-10-17T12:26:05.462Z,4.83
2022-10-17T12:28:44.888Z,4.50
2022-10-17T12:31:19.324Z,4.70
2022-10-17T12:34:03.479Z,4.50
2022-10-17T12:36:30.685Z,4.87
2022-10-17T12:39:04.443Z,4.50
2022-10-17T12:41:40.967Z,4.23
2022-10-17T12:44:14.564Z,4.47
2022-10-17T12:47:06.546Z,4.57
2022-10-17T12:49:47.983Z,4.77
2022-10-17T12:52:47.402Z,4.57
2022-10-17T12:55:20.463Z,4.67
2022-10-17T12:58:14.910Z,4.70
2022-10-17T13:01:22.652Z,4.53
2022-10-17T13:03:46.980Z,4.70
2022-10-17T13:06:29.313Z,4.30
2022-10-17T13:09:25.176Z,4.63
2022-10-17T13:11:54.733Z,4.40
2022-10-17T13:14:24.957Z,4.83
2022-10-17T13:16:53.764Z,4.87
2022-10-17T13:19:31.568Z,4.73
2022-10-17T13:22:07.031Z,4.43
2022-10-17T13:24:40.867Z,4.53
2022-10-17T13:27:33.851Z,4.30
2022-10-17T13:30:20.654Z,4.67
2022-10-17T13:32:48.083Z,4.40
2022-10-17T13:35:41.988Z,4.53
2022-10-17T13:38:14.164Z,4.20
2022-10-17T13:40:49.987Z,4.40
2022-10-17T13:43:24.591Z,4.33
2022-10-17T13:46:13.724Z,4.20
2022-10-17T13:48:49.965Z,4.67
2022-10-17T13:51:17.702Z,3.93
2022-10-17T13:53:45.432Z,4.40
2022-10-17T14:00:38.954Z,4.00
2022-10-17T14:03:06.651Z,4.27
2022-10-17T14:05:35.020Z,4.47
2022-10-17T14:08:11.825Z,4.20
2022-10-17T14:10:43.988Z,4.20
2022-10-17T14:13:36.970Z,3.80
2022-10-17T14:16:26.092Z,4.00
2022-10-17T14:18:55.811Z,4.27
2022-10-17T14:21:43.005Z,3.87
2022-10-17T14:24:27.389Z,4.37
2022-10-17T14:26:59.729Z,4.17
2022-10-17T14:29:51.312Z,4.27
2022-10-17T14:32:20.990Z,4.53
2022-10-17T14:35:01.526Z,4.60
2022-10-17T14:37:49.174Z,4.50
2022-10-17T14:40:26.470Z,4.60
2022-10-17T14:43:02.871Z,4.40
2022-10-17T14:45:38.832Z,5.10
2022-10-17T14:48:18.102Z,4.73
2022-10-17T14:51:15.633Z,4.70
2022-10-17T14:54:06.085Z,4.40
2022-10-17T14:56:49.457Z,5.20
2022-10-17T14:59:35.579Z,5.10
2022-10-17T15:02:07.415Z,4.63
2022-10-17T15:04:34.943Z,4.90
2022-10-17T15:07:03.491Z,6.20
2022-10-17T15:09:31.501Z,5.70
2022-10-17T15:12:16.768Z,5.40
2022-10-17T15:14:45.348Z,5.83
2022-10-17T15:17:26.785Z,5.60
2022-10-17T15:19:55.388Z,5.33
2022-10-17T15:22:23.635Z,5.07
2022-10-17T15:24:51.531Z,5.83
2022-10-17T15:27:26.557Z,6.07
2022-10-17T15:29:53.992Z,5.97
2022-10-17T15:32:21.449Z,6.27
2022-10-17T15:34:48.801Z,6.50
2022-10-17T15:37:26.503Z,6.10
2022-10-17T15:40:31.643Z,6.37
2022-10-17T15:42:59.027Z,5.93
2022-10-17T15:45:26.569Z,6.40
2022-10-17T15:48:07.931Z,6.27
2022-10-17T15:50:35.394Z,5.87
2022-10-17T15:53:03.074Z,5.93
2022-10-17T15:55:32.580Z,6.27
2022-10-17T15:58:00.791Z,5.93
2022-10-17T16:00:28.792Z,5.57
2022-10-17T16:02:56.600Z,5.37
2022-10-17T16:05:27.501Z,5.90
2022-10-17T16:07:56.519Z,5.43
2022-10-17T16:10:26.340Z,5.50
2022-10-17T16:12:56.437Z,6.23
2022-10-17T16:15:43.046Z,5.63
2022-10-17T16:18:10.415Z,5.67
2022-10-17T16:20:39.588Z,5.90
2022-10-17T16:23:08.590Z,5.40
2022-10-17T16:25:54.754Z,5.23
2022-10-17T16:28:22.110Z,5.77
2022-10-17T16:30:49.553Z,5.73
2022-10-17T16:33:16.909Z,5.93
2022-10-17T16:35:45.864Z,5.70
2022-10-17T16:38:15.926Z,6.00
2022-10-17T16:40:43.468Z,7.80
2022-10-17T16:43:14.462Z,6.30
2022-10-17T16:45:42.494Z,6.10
2022-10-17T16:48:10.810Z,6.30
2022-10-17T16:50:40.627Z,6.70
2022-10-17T16:53:08.044Z,6.87
2022-10-17T16:55:35.413Z,6.73
2022-10-17T16:58:03.017Z,7.00
2022-10-17T17:00:30.525Z,7.37
2022-10-17T17:03:00.676Z,6.53
2022-10-17T17:05:28.486Z,6.90
2022-10-17T17:07:56.254Z,6.37
2022-10-17T17:10:23.765Z,7.00
2022-10-17T17:12:50.975Z,6.47
2022-10-17T17:15:18.185Z,6.70
2022-10-17T17:17:50.547Z,6.33
2022-10-17T17:20:19.743Z,6.53
2022-10-17T17:22:47.307Z,6.47
2022-10-17T17:25:14.755Z,6.30
2022-10-17T17:27:42.257Z,7.10
2022-10-17T17:30:10.438Z,7.57
2022-10-17T17:32:37.976Z,7.13
2022-10-17T17:35:05.975Z,6.53
2022-10-17T17:37:33.526Z,7.10
2022-10-17T17:40:00.903Z,7.17
2022-10-17T17:42:28.283Z,6.87
2022-10-17T17:44:55.455Z,6.77
2022-10-17T17:47:22.774Z,5.93
2022-10-17T17:49:50.424Z,6.47
2022-10-17T17:52:18.111Z,7.07
2022-10-17T17:54:45.675Z,7.10
2022-10-17T17:57:13.082Z,6.77
2022-10-17T17:59:41.719Z,6.93
2022-10-17T18:02:12.310Z,7.20
2022-10-17T18:04:39.571Z,6.97
2022-10-17T18:07:06.786Z,7.30
2022-10-17T18:09:34.185Z,6.77
2022-10-17T18:12:01.430Z,6.70
2022-10-17T18:14:28.586Z,6.53
2022-10-17T18:16:56.165Z,6.93
2022-10-17T18:19:24.098Z,6.73
2022-10-17T18:21:52.204Z,6.60
2022-10-17T18:24:20.128Z,6.27
2022-10-17T18:26:48.423Z,6.03
2022-10-17T18:29:16.278Z,6.77
2022-10-17T18:31:43.911Z,6.50
2022-10-17T18:34:11.597Z,6.50
2022-10-17T18:36:39.226Z,6.90
2022-10-17T18:39:06.695Z,7.00
2022-10-17T18:41:34.471Z,6.93
2022-10-17T18:44:03.162Z,7.43
2022-10-17T18:46:41.345Z,7.10
2022-10-17T18:49:15.105Z,6.53
2022-10-17T18:51:43.358Z,7.00
2022-10-17T18:54:21.387Z,7.03
2022-10-17T18:56:52.437Z,7.20
2022-10-17T18:59:21.647Z,7.07
2022-10-17T19:01:49.991Z,6.23
2022-10-17T19:04:17.775Z,6.60
2022-10-17T19:06:45.860Z,6.53
2022-10-17T19:09:16.157Z,6.40
2022-10-17T19:11:43.824Z,6.87
2022-10-17T19:14:14.043Z,6.57
2022-10-17T19:16:49.890Z,5.90
2022-10-17T19:19:22.671Z,6.60
2022-10-17T19:21:51.742Z,5.97
2022-10-17T19:24:25.654Z,6.00
2022-10-17T19:26:57.416Z,7.00
2022-10-17T19:29:29.065Z,6.87
2022-10-17T19:34:24.262Z,7.80
2022-10-17T19:36:58.331Z,7.53
2022-10-17T19:39:27.266Z,9.30
2022-10-17T19:41:56.202Z,7.50
2022-10-17T19:44:23.834Z,7.93
2022-10-17T19:46:51.437Z,8.47
2022-10-17T19:49:19.308Z,8.50
2022-10-17T19:51:46.754Z,7.73
2022-10-17T19:54:16.946Z,6.90
2022-10-17T19:56:45.009Z,6.60
2022-10-17T19:59:15.830Z,6.73
2022-10-17T20:01:44.432Z,6.43
2022-10-17T20:04:13.000Z,5.77
2022-10-17T20:06:41.828Z,6.00
2022-10-17T20:09:14.038Z,6.10
2022-10-17T20:11:44.531Z,4.97
2022-10-17T20:14:11.993Z,4.57
2022-10-17T20:16:39.299Z,5.00
2022-10-17T20:19:10.765Z,4.90
2022-10-17T20:21:40.024Z,4.73
2022-10-17T20:24:12.791Z,3.73
2022-10-17T20:26:40.550Z,4.90
2022-10-17T20:29:16.279Z,5.20
2022-10-17T20:31:46.908Z,5.33
2022-10-17T20:34:17.229Z,4.93
2022-10-17T20:36:45.419Z,5.33
2022-10-17T20:39:16.089Z,6.00
2022-10-17T20:41:45.316Z,5.10
2022-10-17T20:44:13.387Z,5.53
2022-10-17T20:46:52.710Z,5.60
2022-10-17T20:49:25.041Z,5.00
2022-10-17T20:51:52.500Z,5.20
2022-10-17T20:54:22.973Z,4.57
2022-10-17T20:56:54.029Z,4.73
2022-10-17T20:59:21.995Z,4.80
2022-10-17T21:01:49.353Z,5.00
2022-10-17T21:04:44.040Z,5.00
2022-10-17T21:07:04.902Z,5.23
2022-10-17T21:09:32.844Z,5.03
2022-10-17T21:14:29.378Z,4.77
2022-10-17T21:17:04.523Z,5.47
2022-10-17T21:19:33.018Z,5.43
2022-10-17T21:22:00.941Z,8.77
2022-10-17T21:24:28.686Z,5.60
2022-10-17T21:26:57.663Z,5.13
2022-10-17T21:29:25.832Z,4.47
2022-10-17T21:31:53.531Z,4.47
2022-10-17T21:34:28.267Z,5.00
2022-10-17T21:36:56.249Z,4.50
2022-10-17T21:39:25.213Z,4.57
2022-10-17T21:41:54.032Z,4.40
2022-10-17T21:44:24.948Z,4.13
2022-10-17T21:46:53.923Z,4.03
2022-10-17T21:49:24.481Z,5.10
2022-10-17T21:51:53.045Z,4.70
2022-10-17T21:54:23.187Z,4.77
2022-10-17T21:56:51.763Z,4.40
2022-10-17T21:59:19.176Z,4.50
2022-10-17T22:01:47.306Z,3.90
2022-10-17T22:04:17.899Z,4.13
2022-10-17T22:06:48.578Z,4.20
2022-10-17T22:09:26.318Z,4.07
2022-10-17T22:11:56.875Z,7.07
2022-10-17T22:14:27.784Z,6.63
2022-10-17T22:16:55.135Z,5.00
2022-10-17T22:19:27.008Z,4.63
2022-10-17T22:21:55.313Z,4.50
2022-10-17T22:24:23.741Z,4.10
2022-10-17T22:26:51.735Z,3.50
2022-10-17T22:29:19.406Z,3.83
2022-10-17T22:31:46.763Z,3.93
2022-10-17T22:34:17.297Z,3.90
2022-10-17T22:36:45.064Z,3.90
2022-10-17T22:39:12.762Z,3.80
2022-10-17T22:41:40.329Z,3.77
2022-10-17T22:44:08.383Z,3.63
2022-10-17T22:46:36.176Z,4.03
2022-10-17T22:49:03.738Z,3.67
2022-10-17T22:51:31.126Z,4.27
2022-10-17T22:53:58.401Z,3.90
2022-10-17T22:56:25.821Z,3.70
2022-10-17T22:58:53.274Z,3.80
2022-10-17T23:01:23.751Z,3.50
2022-10-17T23:03:53.206Z,3.60
2022-10-17T23:06:21.805Z,3.53
2022-10-17T23:08:50.079Z,3.73
2022-10-17T23:11:17.795Z,4.20
2022-10-17T23:13:45.519Z,4.30
2022-10-17T23:16:12.874Z,3.47
2022-10-17T23:18:44.460Z,3.67
2022-10-17T23:21:30.628Z,3.70
2022-10-17T23:23:57.819Z,3.30
2022-10-17T23:26:25.089Z,3.67
2022-10-17T23:28:55.187Z,3.67
2022-10-17T23:31:23.178Z,3.20
2022-10-17T23:33:50.853Z,3.17
2022-10-17T23:36:21.744Z,3.60
2022-10-17T23:38:51.791Z,3.53
2022-10-17T23:41:24.606Z,3.60
2022-10-17T23:43:55.337Z,3.60
2022-10-17T23:46:22.484Z,3.37
2022-10-17T23:48:49.925Z,3.37
2022-10-17T23:51:18.083Z,3.57
2022-10-17T23:53:45.577Z,3.37
2022-10-17T23:56:13.156Z,4.00
2022-10-17T23:58:40.887Z,3.20
